createdAt,value
2023-03-04T00:01:29.823Z,2.60
2023-03-04T00:03:57.767Z,2.54
2023-03-04T00:06:25.387Z,2.50
2023-03-04T00:08:53.669Z,2.47
2023-03-04T00:11:21.353Z,2.45
2023-03-04T00:13:49.182Z,2.44
2023-03-04T00:16:16.922Z,2.43
2023-03-04T00:18:44.568Z,2.40
2023-03-04T00:21:12.203Z,2.35
2023-03-04T00:23:41.507Z,2.31
2023-03-04T00:26:09.220Z,2.29
2023-03-04T00:28:38.740Z,2.27
2023-03-04T00:31:07.721Z,2.27
2023-03-04T00:33:36.046Z,2.25
2023-03-04T00:36:05.225Z,2.22
2023-03-04T00:38:33.022Z,2.17
2023-03-04T00:41:00.666Z,2.12
2023-03-04T00:43:29.220Z,2.09
2023-03-04T00:45:57.139Z,2.04
2023-03-04T00:48:24.835Z,2.01
2023-03-04T00:50:53.543Z,1.96
2023-03-04T00:53:23.403Z,1.95
2023-03-04T00:55:51.136Z,1.93
2023-03-04T00:58:18.572Z,1.88
2023-03-04T01:00:46.112Z,1.86
2023-03-04T01:03:14.046Z,1.85
2023-03-04T01:05:42.087Z,1.84
2023-03-04T01:08:10.057Z,1.87
2023-03-04T01:10:37.487Z,1.91
2023-03-04T01:13:05.409Z,1.94
2023-03-04T01:15:33.101Z,1.99
2023-03-04T01:18:00.878Z,2.04
2023-03-04T01:20:28.705Z,2.09
2023-03-04T01:22:57.166Z,2.13
2023-03-04T01:25:25.321Z,2.20
2023-03-04T01:27:53.071Z,2.25
2023-03-04T01:30:21.184Z,2.28
2023-03-04T01:32:49.654Z,2.30
2023-03-04T01:35:17.494Z,2.34
2023-03-04T01:37:45.265Z,2.40
2023-03-04T01:40:14.170Z,2.46
2023-03-04T01:42:42.325Z,2.52
2023-03-04T01:45:19.638Z,2.54
2023-03-04T01:47:49.218Z,2.58
2023-03-04T01:50:33.424Z,2.61
2023-03-04T01:53:02.392Z,2.61
2023-03-04T01:55:31.277Z,2.58
2023-03-04T01:57:59.257Z,2.59
2023-03-04T02:00:33.313Z,2.61
2023-03-04T02:03:08.273Z,2.63
2023-03-04T02:05:39.785Z,2.65
2023-03-04T02:08:09.433Z,2.65
2023-03-04T02:10:38.281Z,2.64
2023-03-04T02:13:06.633Z,2.60
2023-03-04T02:15:34.444Z,2.54
2023-03-04T02:18:02.720Z,2.48
2023-03-04T02:20:43.026Z,2.44
2023-03-04T02:23:37.303Z,2.40
2023-03-04T02:26:15.732Z,2.38
2023-03-04T02:28:45.448Z,2.37
2023-03-04T02:31:41.530Z,2.35
2023-03-04T02:34:26.181Z,2.34
2023-03-04T02:36:55.276Z,2.30
2023-03-04T02:39:32.083Z,2.30
2023-03-04T02:42:00.589Z,2.26
2023-03-04T02:44:34.317Z,2.24
2023-03-04T02:47:04.659Z,2.19
2023-03-04T02:49:34.089Z,2.20
2023-03-04T02:52:07.424Z,2.21
2023-03-04T02:54:36.962Z,2.25
2023-03-04T02:57:10.162Z,2.29
2023-03-04T02:59:40.347Z,2.31
2023-03-04T03:02:10.583Z,2.29
2023-03-04T03:04:40.830Z,2.33
2023-03-04T03:07:10.549Z,2.34
2023-03-04T03:09:38.698Z,2.33
2023-03-04T03:12:07.349Z,2.30
2023-03-04T03:14:35.005Z,2.26
2023-03-04T03:17:03.681Z,2.23
2023-03-04T03:19:32.350Z,2.21
2023-03-04T03:22:00.825Z,2.15
2023-03-04T03:24:29.086Z,2.07
2023-03-04T03:26:56.843Z,2.02
2023-03-04T03:29:24.708Z,1.97
2023-03-04T03:31:52.717Z,1.94
2023-03-04T03:34:21.260Z,1.92
2023-03-04T03:36:49.308Z,1.87
2023-03-04T03:39:17.677Z,1.84
2023-03-04T03:41:45.427Z,1.81
2023-03-04T03:44:13.058Z,1.80
2023-03-04T03:46:40.685Z,1.76
2023-03-04T03:49:08.475Z,1.73
2023-03-04T03:51:36.216Z,1.72
2023-03-04T03:54:04.064Z,1.70
2023-03-04T03:56:31.794Z,1.71
2023-03-04T03:58:59.654Z,1.70
2023-03-04T04:01:27.616Z,1.71
2023-03-04T04:03:55.730Z,1.71
2023-03-04T04:06:23.456Z,1.70
2023-03-04T04:08:51.350Z,1.72
2023-03-04T04:11:20.293Z,1.74
2023-03-04T04:13:48.107Z,1.77
2023-03-04T04:16:16.099Z,1.80
2023-03-04T04:18:43.829Z,1.77
2023-03-04T04:21:11.617Z,1.76
2023-03-04T04:23:39.606Z,1.74
2023-03-04T04:26:07.475Z,1.71
2023-03-04T04:28:35.483Z,1.70
2023-03-04T04:31:08.595Z,1.70
2023-03-04T04:33:36.841Z,1.69
2023-03-04T04:36:05.706Z,1.68
2023-03-04T04:38:33.324Z,1.69
2023-03-04T04:41:00.995Z,1.72
2023-03-04T04:43:28.871Z,1.73
2023-03-04T04:45:59.521Z,1.72
2023-03-04T04:48:27.199Z,1.76
2023-03-04T04:50:56.187Z,1.82
2023-03-04T04:53:23.958Z,1.87
2023-03-04T04:55:51.518Z,1.93
2023-03-04T04:58:19.499Z,1.98
2023-03-04T05:00:47.140Z,2.01
2023-03-04T05:03:16.916Z,2.05
2023-03-04T05:05:44.759Z,2.06
2023-03-04T05:08:12.680Z,2.09
2023-03-04T05:10:40.175Z,2.10
2023-03-04T05:13:08.014Z,2.11
2023-03-04T05:15:38.640Z,2.13
2023-03-04T05:18:06.760Z,2.17
2023-03-04T05:20:35.771Z,2.22
2023-03-04T05:23:03.551Z,2.25
2023-03-04T05:25:31.275Z,2.30
2023-03-04T05:28:00.931Z,2.29
2023-03-04T05:30:28.936Z,2.33
2023-03-04T05:32:56.505Z,2.39
2023-03-04T05:35:24.157Z,2.44
2023-03-04T05:37:51.672Z,2.48
2023-03-04T05:40:19.925Z,2.55
2023-03-04T05:42:47.674Z,2.58
2023-03-04T05:45:15.488Z,2.62
2023-03-04T05:47:43.532Z,2.63
2023-03-04T05:50:12.190Z,2.64
2023-03-04T05:52:40.329Z,2.65
2023-03-04T05:55:09.453Z,2.66
2023-03-04T05:57:37.324Z,2.69
2023-03-04T06:00:10.218Z,2.70
2023-03-04T06:02:41.959Z,2.75
2023-03-04T06:05:12.037Z,2.76
2023-03-04T06:07:40.406Z,2.65
2023-03-04T06:10:11.271Z,2.57
2023-03-04T06:12:39.282Z,2.58
2023-03-04T06:15:09.570Z,2.65
2023-03-04T06:17:42.035Z,2.66
2023-03-04T06:20:12.068Z,2.70
2023-03-04T06:22:40.063Z,2.76
2023-03-04T06:25:09.420Z,2.80
2023-03-04T06:27:37.304Z,2.80
2023-03-04T06:30:06.694Z,2.85
2023-03-04T06:32:34.692Z,2.89
2023-03-04T06:35:03.571Z,2.95
2023-03-04T06:37:31.306Z,3.03
2023-03-04T06:39:58.843Z,3.07
2023-03-04T06:45:09.278Z,3.01
2023-03-04T06:47:37.122Z,2.97
2023-03-04T06:50:06.103Z,3.03
2023-03-04T06:52:35.242Z,3.07
2023-03-04T06:55:03.934Z,3.14
2023-03-04T06:57:32.012Z,3.30
2023-03-04T06:59:59.732Z,3.44
2023-03-04T07:02:27.402Z,3.58
2023-03-04T07:04:55.268Z,3.62
2023-03-04T07:07:23.222Z,3.67
2023-03-04T07:09:50.714Z,3.76
2023-03-04T07:12:18.363Z,3.84
2023-03-04T07:14:45.774Z,3.94
2023-03-04T07:17:14.706Z,4.03
2023-03-04T07:19:42.583Z,4.09
2023-03-04T07:22:10.744Z,4.09
2023-03-04T07:24:38.236Z,4.10
2023-03-04T07:27:06.030Z,4.08
2023-03-04T07:29:33.932Z,4.07
2023-03-04T07:32:01.636Z,4.10
2023-03-04T07:34:29.213Z,4.11
2023-03-04T07:36:56.688Z,4.15
2023-03-04T07:39:24.841Z,4.18
2023-03-04T07:41:52.750Z,4.23
2023-03-04T07:44:21.392Z,4.30
2023-03-04T07:46:49.008Z,4.36
2023-03-04T07:49:16.645Z,4.42
2023-03-04T07:51:44.323Z,4.50
2023-03-04T07:54:12.210Z,4.56
2023-03-04T07:56:39.798Z,4.64
2023-03-04T07:59:07.449Z,4.74
2023-03-04T08:01:37.126Z,4.75
2023-03-04T08:04:07.073Z,4.78
2023-03-04T08:06:35.819Z,4.83
2023-03-04T08:09:06.853Z,4.86
2023-03-04T08:11:37.412Z,4.87
2023-03-04T08:14:05.497Z,4.85
2023-03-04T08:16:33.435Z,4.87
2023-03-04T08:19:03.689Z,4.88
2023-03-04T08:21:32.140Z,4.93
2023-03-04T08:24:04.356Z,4.99
2023-03-04T08:26:41.253Z,5.06
2023-03-04T08:29:13.735Z,5.11
2023-03-04T08:31:42.401Z,5.15
2023-03-04T08:34:10.982Z,5.18
2023-03-04T08:36:38.922Z,5.25
2023-03-04T08:39:06.595Z,5.28
2023-03-04T08:41:34.267Z,5.33
2023-03-04T08:44:02.311Z,5.39
2023-03-04T08:46:31.837Z,5.44
2023-03-04T08:48:59.922Z,5.55
2023-03-04T08:51:29.811Z,5.66
2023-03-04T08:53:57.633Z,5.74
2023-03-04T08:56:25.313Z,5.80
2023-03-04T08:58:52.988Z,5.93
2023-03-04T09:01:20.896Z,6.10
2023-03-04T09:03:48.737Z,6.23
2023-03-04T09:06:17.530Z,6.33
2023-03-04T09:08:46.207Z,6.51
2023-03-04T09:11:14.540Z,6.69
2023-03-04T09:13:44.002Z,6.86
2023-03-04T09:16:14.498Z,6.97
2023-03-04T09:18:42.959Z,7.08
2023-03-04T09:21:11.005Z,7.22
2023-03-04T09:23:38.882Z,7.37
2023-03-04T09:26:21.133Z,7.54
2023-03-04T09:28:55.350Z,7.70
2023-03-04T09:31:23.794Z,7.88
2023-03-04T09:33:54.319Z,7.95
2023-03-04T09:36:22.937Z,8.12
2023-03-04T09:38:51.813Z,8.28
2023-03-04T09:41:26.879Z,8.43
2023-03-04T09:43:56.250Z,8.56
2023-03-04T09:46:38.054Z,8.62
2023-03-04T09:49:07.406Z,8.65
2023-03-04T09:52:15.743Z,8.73
2023-03-04T09:55:07.746Z,8.86
2023-03-04T09:58:04.469Z,9.08
2023-03-04T10:00:46.581Z,9.06
2023-03-04T10:03:20.559Z,8.99
2023-03-04T10:06:00.010Z,8.92
2023-03-04T10:09:01.602Z,8.86
2023-03-04T10:11:45.417Z,8.85
2023-03-04T10:14:36.336Z,8.78
2023-03-04T10:17:15.125Z,8.74
2023-03-04T10:20:12.462Z,8.71
2023-03-04T10:22:51.371Z,8.63
2023-03-04T10:25:28.989Z,8.57
2023-03-04T10:28:07.960Z,8.60
2023-03-04T10:31:10.453Z,8.61
2023-03-04T10:33:40.202Z,8.58
2023-03-04T10:36:50.122Z,8.63
2023-03-04T10:39:31.162Z,8.63
2023-03-04T10:42:03.648Z,8.59
2023-03-04T10:44:34.610Z,8.59
2023-03-04T10:47:02.234Z,8.60
2023-03-04T10:49:31.214Z,8.63
2023-03-04T10:52:36.102Z,8.62
2023-03-04T10:55:18.026Z,8.64
2023-03-04T10:57:52.699Z,8.70
2023-03-04T11:00:27.071Z,8.77
2023-03-04T11:03:29.157Z,8.82
2023-03-04T11:06:12.816Z,8.85
2023-03-04T11:08:41.718Z,8.83
2023-03-04T11:11:33.094Z,8.86
2023-03-04T11:14:06.258Z,8.87
2023-03-04T11:16:34.272Z,8.96
2023-03-04T11:19:08.338Z,9.00
2023-03-04T11:21:40.452Z,9.00
2023-03-04T11:24:28.039Z,9.04
2023-03-04T11:27:11.863Z,9.06
2023-03-04T11:29:55.050Z,9.10
2023-03-04T11:32:35.775Z,9.03
2023-03-04T11:35:26.803Z,9.02
2023-03-04T11:38:05.862Z,9.05
2023-03-04T11:40:47.800Z,9.01
2023-03-04T11:43:23.521Z,8.93
2023-03-04T11:46:37.908Z,8.90
2023-03-04T11:49:36.639Z,8.91
2023-03-04T11:52:35.386Z,9.00
2023-03-04T11:55:23.739Z,9.09
2023-03-04T11:58:05.594Z,9.24
2023-03-04T12:00:53.895Z,9.33
2023-03-04T12:03:56.789Z,9.41
2023-03-04T12:06:42.496Z,9.49
2023-03-04T12:09:49.433Z,9.43
2023-03-04T12:12:45.562Z,9.35
2023-03-04T12:15:34.065Z,9.38
2023-03-04T12:18:34.340Z,9.46
2023-03-04T12:21:28.488Z,9.51
2023-03-04T12:24:33.755Z,9.53
2023-03-04T12:27:24.606Z,9.59
2023-03-04T12:30:18.808Z,9.79
2023-03-04T12:33:08.259Z,9.99
2023-03-04T12:35:58.153Z,10.13
2023-03-04T12:38:52.693Z,10.21
2023-03-04T12:42:01.925Z,10.26
2023-03-04T12:44:37.629Z,10.27
2023-03-04T12:47:31.598Z,10.32
2023-03-04T12:50:33.398Z,10.33
2023-03-04T12:53:14.740Z,10.41
2023-03-04T12:55:45.225Z,10.60
2023-03-04T12:58:26.485Z,10.81
2023-03-04T13:01:25.683Z,11.00
2023-03-04T13:04:16.873Z,11.19
2023-03-04T13:07:16.827Z,11.34
2023-03-04T13:10:01.382Z,11.33
2023-03-04T13:12:28.833Z,11.26
2023-03-04T13:15:14.237Z,11.15
2023-03-04T13:18:06.541Z,11.05
2023-03-04T13:20:42.260Z,10.95
2023-03-04T13:23:17.837Z,10.88
2023-03-04T13:25:52.843Z,10.76
2023-03-04T13:28:30.436Z,10.70
2023-03-04T13:31:16.142Z,10.71
2023-03-04T13:33:52.831Z,10.75
2023-03-04T13:36:31.850Z,10.73
2023-03-04T13:39:20.786Z,10.63
2023-03-04T13:41:51.732Z,10.52
2023-03-04T13:44:46.211Z,10.52
2023-03-04T13:47:18.250Z,10.54
2023-03-04T13:49:46.533Z,10.63
2023-03-04T13:52:43.824Z,10.69
2023-03-04T13:55:36.264Z,10.69
2023-03-04T13:58:26.337Z,10.74
2023-03-04T14:00:55.751Z,10.94
2023-03-04T14:03:30.063Z,11.09
2023-03-04T14:06:20.577Z,11.11
2023-03-04T14:08:50.658Z,11.10
2023-03-04T14:11:36.034Z,11.11
2023-03-04T14:14:07.600Z,11.05
2023-03-04T14:16:39.617Z,10.97
2023-03-04T14:19:18.848Z,10.89
2023-03-04T14:21:47.601Z,10.88
2023-03-04T14:24:19.164Z,10.95
2023-03-04T14:26:48.147Z,11.08
2023-03-04T14:29:26.791Z,11.23
2023-03-04T14:31:55.483Z,11.29
2023-03-04T14:34:35.593Z,11.29
2023-03-04T14:37:07.372Z,11.30
2023-03-04T14:39:37.166Z,11.28
2023-03-04T14:42:09.764Z,11.22
2023-03-04T14:44:43.526Z,11.14
2023-03-04T14:47:30.730Z,11.07
2023-03-04T14:49:58.418Z,11.00
2023-03-04T14:52:39.588Z,10.89
2023-03-04T14:55:19.245Z,10.82
2023-03-04T14:57:55.590Z,10.70
2023-03-04T15:00:31.848Z,10.63
2023-03-04T15:03:04.693Z,10.65
2023-03-04T15:05:35.355Z,10.70
2023-03-04T15:08:25.469Z,10.74
2023-03-04T15:11:00.537Z,10.81
2023-03-04T15:13:49.275Z,10.88
2023-03-04T15:16:22.008Z,10.97
2023-03-04T15:19:20.827Z,11.04
2023-03-04T15:21:49.129Z,11.12
2023-03-04T15:24:17.012Z,11.19
2023-03-04T15:26:45.522Z,11.22
2023-03-04T15:29:18.402Z,11.26
2023-03-04T15:31:50.139Z,11.30
2023-03-04T15:34:20.897Z,11.34
2023-03-04T15:36:52.030Z,11.32
2023-03-04T15:39:22.906Z,11.28
2023-03-04T15:41:50.837Z,11.23
2023-03-04T15:44:18.509Z,11.14
2023-03-04T15:46:46.075Z,11.07
2023-03-04T15:49:16.103Z,10.98
2023-03-04T15:51:44.040Z,10.86
2023-03-04T15:54:16.209Z,10.77
2023-03-04T15:56:43.697Z,10.71
2023-03-04T15:59:14.423Z,10.65
2023-03-04T16:01:43.038Z,10.56
2023-03-04T16:04:17.682Z,10.49
2023-03-04T16:06:47.083Z,10.38
2023-03-04T16:09:19.085Z,10.30
2023-03-04T16:11:47.629Z,10.21
2023-03-04T16:14:16.218Z,10.08
2023-03-04T16:16:46.272Z,9.97
2023-03-04T16:19:14.535Z,9.88
2023-03-04T16:21:42.429Z,9.79
2023-03-04T16:24:17.561Z,9.71
2023-03-04T16:26:45.517Z,9.61
2023-03-04T16:29:13.901Z,9.48
2023-03-04T16:31:41.748Z,9.35
2023-03-04T16:34:09.324Z,9.25
2023-03-04T16:36:37.100Z,9.12
2023-03-04T16:39:10.544Z,9.00
2023-03-04T16:41:38.355Z,8.87
2023-03-04T16:44:08.019Z,8.74
2023-03-04T16:46:35.938Z,8.64
2023-03-04T16:49:03.903Z,8.54
2023-03-04T16:51:36.015Z,8.43
2023-03-04T16:54:03.878Z,8.35
2023-03-04T16:56:32.571Z,8.21
2023-03-04T16:59:00.251Z,8.08
2023-03-04T17:01:29.357Z,7.99
2023-03-04T17:03:57.038Z,7.93
2023-03-04T17:06:25.052Z,7.87
2023-03-04T17:08:52.694Z,7.79
2023-03-04T17:11:22.839Z,7.74
2023-03-04T17:13:51.965Z,7.69
2023-03-04T17:16:20.119Z,7.65
2023-03-04T17:18:48.790Z,7.59
2023-03-04T17:21:21.291Z,7.54
2023-03-04T17:23:49.332Z,7.47
2023-03-04T17:26:19.596Z,7.42
2023-03-04T17:28:49.454Z,7.37
2023-03-04T17:31:20.011Z,7.30
2023-03-04T17:33:49.748Z,7.24
2023-03-04T17:36:19.346Z,7.19
2023-03-04T17:38:49.021Z,7.13
2023-03-04T17:41:18.322Z,7.09
2023-03-04T17:43:51.298Z,7.03
2023-03-04T17:46:22.109Z,6.98
2023-03-04T17:48:54.462Z,6.94
2023-03-04T17:51:35.732Z,6.85
2023-03-04T17:54:05.947Z,6.78
2023-03-04T17:56:36.593Z,6.71
2023-03-04T17:59:08.517Z,6.69
2023-03-04T18:01:36.233Z,6.67
2023-03-04T18:04:04.221Z,6.64
2023-03-04T18:06:31.778Z,6.62
2023-03-04T18:08:59.709Z,6.57
2023-03-04T18:11:28.342Z,6.52
2023-03-04T18:13:56.692Z,6.45
2023-03-04T18:16:26.760Z,6.39
2023-03-04T18:18:57.959Z,6.32
2023-03-04T18:21:27.634Z,6.26
2023-03-04T18:23:56.582Z,6.18
2023-03-04T18:26:24.926Z,6.11
2023-03-04T18:28:54.914Z,6.05
2023-03-04T18:31:28.916Z,5.99
2023-03-04T18:33:56.343Z,5.92
2023-03-04T18:36:27.388Z,5.84
2023-03-04T18:38:56.728Z,5.79
2023-03-04T18:41:27.196Z,5.77
2023-03-04T18:43:54.186Z,5.74
2023-03-04T18:46:53.474Z,5.68
2023-03-04T18:49:23.794Z,5.61
2023-03-04T18:51:51.864Z,5.52
2023-03-04T18:54:19.469Z,5.47
2023-03-04T18:56:54.171Z,5.42
2023-03-04T18:59:45.443Z,5.41
2023-03-04T19:02:33.389Z,5.39
2023-03-04T19:05:11.633Z,5.36
2023-03-04T19:07:39.499Z,5.33
2023-03-04T19:10:28.923Z,5.28
2023-03-04T19:12:58.593Z,5.24
2023-03-04T19:15:26.492Z,5.20
2023-03-04T19:17:54.037Z,5.15
2023-03-04T19:20:23.124Z,5.11
2023-03-04T19:22:50.941Z,5.04
2023-03-04T19:25:19.063Z,4.96
2023-03-04T19:27:46.771Z,4.91
2023-03-04T19:30:14.831Z,4.86
2023-03-04T19:32:43.080Z,4.84
2023-03-04T19:35:10.979Z,4.83
2023-03-04T19:37:38.489Z,4.81
2023-03-04T19:40:08.731Z,4.72
2023-03-04T19:42:36.978Z,4.67
2023-03-04T19:45:08.104Z,4.62
2023-03-04T19:47:37.334Z,4.60
2023-03-04T19:50:07.689Z,4.60
2023-03-04T19:52:35.765Z,4.58
2023-03-04T19:55:04.647Z,4.58
2023-03-04T19:57:33.565Z,4.57
2023-03-04T20:00:01.595Z,4.53
2023-03-04T20:02:32.480Z,4.50
2023-03-04T20:05:00.040Z,4.46
2023-03-04T20:07:27.948Z,4.43
2023-03-04T20:09:56.463Z,4.39
2023-03-04T20:12:24.295Z,4.37
2023-03-04T20:14:53.697Z,4.35
2023-03-04T20:17:21.419Z,4.31
2023-03-04T20:19:49.575Z,4.27
2023-03-04T20:22:17.473Z,4.20
2023-03-04T20:24:45.032Z,4.13
2023-03-04T20:27:16.823Z,4.08
2023-03-04T20:29:45.833Z,4.03
2023-03-04T20:32:13.581Z,4.00
2023-03-04T20:34:41.378Z,3.94
2023-03-04T20:37:08.968Z,3.90
2023-03-04T20:39:36.770Z,3.88
2023-03-04T20:42:06.079Z,3.84
2023-03-04T20:44:35.015Z,3.80
2023-03-04T20:47:03.067Z,3.71
2023-03-04T20:49:30.840Z,3.66
2023-03-04T20:52:07.712Z,3.62
2023-03-04T20:54:37.923Z,3.58
2023-03-04T20:57:07.462Z,3.54
2023-03-04T20:59:37.772Z,3.51
2023-03-04T21:02:12.111Z,3.50
2023-03-04T21:04:40.062Z,3.52
2023-03-04T21:07:07.837Z,3.52
2023-03-04T21:09:36.004Z,3.52
2023-03-04T21:12:03.993Z,3.52
2023-03-04T21:14:32.439Z,3.52
2023-03-04T21:17:03.407Z,3.56
2023-03-04T21:19:39.401Z,3.60
2023-03-04T21:22:07.494Z,3.64
2023-03-04T21:24:37.296Z,3.68
2023-03-04T21:27:06.411Z,3.70
2023-03-04T21:29:34.802Z,3.75
2023-03-04T21:32:23.432Z,3.77
2023-03-04T21:34:47.625Z,3.77
2023-03-04T21:37:15.441Z,3.79
2023-03-04T21:39:42.959Z,3.84
2023-03-04T21:42:11.140Z,3.80
2023-03-04T21:44:49.265Z,3.73
2023-03-04T21:47:08.429Z,3.70
2023-03-04T21:49:38.365Z,3.63
2023-03-04T21:52:05.895Z,3.53
2023-03-04T21:54:33.442Z,3.44
2023-03-04T21:57:01.316Z,3.36
2023-03-04T21:59:29.926Z,3.28
2023-03-04T22:01:57.901Z,3.16
2023-03-04T22:04:25.731Z,3.05
2023-03-04T22:06:53.174Z,2.97
2023-03-04T22:09:20.973Z,2.92
2023-03-04T22:11:48.491Z,2.85
2023-03-04T22:14:16.453Z,2.80
2023-03-04T22:16:59.530Z,2.77
2023-03-04T22:19:13.932Z,2.72
2023-03-04T22:21:41.876Z,2.67
2023-03-04T22:24:09.606Z,2.61
2023-03-04T22:26:37.512Z,2.58
2023-03-04T22:29:05.898Z,2.53
2023-03-04T22:31:37.121Z,2.46
2023-03-04T22:34:09.063Z,2.40
2023-03-04T22:36:40.226Z,2.36
2023-03-04T22:39:11.143Z,2.30
2023-03-04T22:41:38.814Z,2.23
2023-03-04T22:44:07.293Z,2.21
2023-03-04T22:46:38.877Z,2.21
2023-03-04T22:49:09.465Z,2.20
2023-03-04T22:51:40.443Z,2.20
2023-03-04T22:54:13.275Z,2.18
2023-03-04T22:56:40.910Z,2.15
2023-03-04T22:59:09.241Z,2.14
2023-03-04T23:01:37.536Z,2.11
2023-03-04T23:04:06.103Z,2.06
2023-03-04T23:06:34.027Z,2.06
2023-03-04T23:09:01.636Z,2.04
2023-03-04T23:11:34.619Z,2.04
2023-03-04T23:14:05.649Z,2.03
2023-03-04T23:16:36.757Z,2.04
2023-03-04T23:19:06.750Z,2.04
2023-03-04T23:21:36.592Z,2.01
2023-03-04T23:24:06.623Z,1.95
2023-03-04T23:26:40.365Z,1.92
2023-03-04T23:29:12.070Z,1.88
2023-03-04T23:31:39.942Z,1.87
2023-03-04T23:34:07.599Z,1.85
2023-03-04T23:36:56.104Z,1.86
2023-03-04T23:39:23.837Z,1.87
2023-03-04T23:41:51.425Z,1.86
2023-03-04T23:44:19.185Z,1.83
2023-03-04T23:46:47.073Z,1.81
2023-03-04T23:49:16.565Z,1.80
2023-03-04T23:51:45.274Z,1.78
2023-03-04T23:54:14.780Z,1.78
2023-03-04T23:56:42.789Z,1.80
2023-03-04T23:59:11.769Z,1.81
